createdAt,value
2019-03-11T00:02:20.983Z,99970.46
2019-03-11T00:04:52.251Z,99977.80
2019-03-11T00:07:23.599Z,99956.58
2019-03-11T00:09:54.913Z,99949.39
2019-03-11T00:12:26.202Z,99934.25
2019-03-11T00:14:57.560Z,99941.80
2019-03-11T00:17:28.822Z,99934.47
2019-03-11T00:20:00.238Z,99924.84
2019-03-11T00:22:31.703Z,99916.97
2019-03-11T00:25:03.026Z,99928.22
2019-03-11T00:27:34.318Z,99922.47
2019-03-11T00:30:06.570Z,99916.44
2019-03-11T00:32:40.896Z,99904.87
2019-03-11T00:35:12.300Z,99912.20
2019-03-11T00:37:43.618Z,99900.42
2019-03-11T00:40:15.503Z,99900.08
2019-03-11T00:42:46.762Z,99901.84
2019-03-11T00:45:18.178Z,99898.34
2019-03-11T00:47:49.488Z,99902.14
2019-03-11T00:50:20.749Z,99901.00
2019-03-11T00:52:52.042Z,99909.30
2019-03-11T00:55:23.410Z,99908.73
2019-03-11T00:57:54.656Z,99913.06
2019-03-11T01:00:31.154Z,99919.91
2019-03-11T01:03:02.446Z,99896.56
2019-03-11T01:05:33.762Z,99927.56
2019-03-11T01:08:05.100Z,99937.52
2019-03-11T01:10:36.392Z,99944.36
2019-03-11T01:13:07.774Z,99931.73
2019-03-11T01:15:39.060Z,99938.75
2019-03-11T01:18:10.304Z,99939.14
2019-03-11T01:20:41.616Z,99929.52
2019-03-11T01:23:12.891Z,99931.24
2019-03-11T01:25:44.248Z,99928.69
2019-03-11T01:28:15.508Z,99932.97
2019-03-11T01:30:46.760Z,99932.98
2019-03-11T01:33:18.046Z,99923.91
2019-03-11T01:35:49.311Z,99915.64
2019-03-11T01:38:20.616Z,99919.35
2019-03-11T01:40:51.857Z,99920.67
2019-03-11T01:43:23.119Z,99924.69
2019-03-11T01:45:54.397Z,99924.22
2019-03-11T01:48:25.652Z,99917.42
2019-03-11T01:50:56.975Z,99922.35
2019-03-11T01:53:28.219Z,99910.95
2019-03-11T01:55:59.457Z,99923.50
2019-03-11T01:58:30.752Z,99926.24
2019-03-11T02:01:02.047Z,99921.50
2019-03-11T02:03:33.339Z,99916.67
2019-03-11T02:06:04.657Z,99923.31
2019-03-11T02:08:35.900Z,99907.11
2019-03-11T02:11:07.363Z,99916.63
2019-03-11T02:13:38.688Z,99917.54
2019-03-11T02:16:09.932Z,99912.81
2019-03-11T02:18:41.218Z,99920.14
2019-03-11T02:21:12.481Z,99907.66
2019-03-11T02:23:43.739Z,99911.88
2019-03-11T02:26:15.032Z,99900.22
2019-03-11T02:28:46.309Z,99908.20
2019-03-11T02:31:17.581Z,99901.59
2019-03-11T02:33:48.899Z,99914.19
2019-03-11T02:36:20.186Z,99897.35
2019-03-11T02:38:51.502Z,99901.27
2019-03-11T02:41:22.786Z,99908.38
2019-03-11T02:43:54.111Z,99915.83
2019-03-11T02:46:25.417Z,99906.11
2019-03-11T02:48:56.670Z,99906.55
2019-03-11T02:51:27.942Z,99908.78
2019-03-11T02:53:59.229Z,99913.45
2019-03-11T02:56:30.578Z,99907.89
2019-03-11T02:59:02.165Z,99906.94
2019-03-11T03:01:52.340Z,99910.02
2019-03-11T03:04:30.589Z,99925.23
2019-03-11T03:07:01.880Z,99919.14
2019-03-11T03:09:33.170Z,99925.56
2019-03-11T03:12:04.499Z,99931.27
2019-03-11T03:14:35.799Z,99918.48
2019-03-11T03:17:07.100Z,99916.06
2019-03-11T03:19:38.388Z,99915.23
2019-03-11T03:22:09.695Z,99910.95
2019-03-11T03:24:40.980Z,99912.75
2019-03-11T03:27:12.287Z,99915.02
2019-03-11T03:29:43.513Z,99914.15
2019-03-11T03:32:14.772Z,99910.74
2019-03-11T03:34:46.073Z,99913.94
2019-03-11T03:37:17.310Z,99906.39
2019-03-11T03:39:48.590Z,99908.83
2019-03-11T03:42:20.026Z,99906.88
2019-03-11T03:45:29.951Z,99904.60
2019-03-11T03:48:01.488Z,99911.16
2019-03-11T03:50:35.502Z,99904.38
2019-03-11T03:53:07.060Z,99901.55
2019-03-11T03:55:38.412Z,99892.87
2019-03-11T03:58:09.786Z,99904.20
2019-03-11T04:00:41.073Z,99901.80
2019-03-11T04:03:12.407Z,99904.50
2019-03-11T04:05:43.704Z,99906.09
2019-03-11T04:08:14.993Z,99901.95
2019-03-11T04:10:46.321Z,99907.92
2019-03-11T04:13:17.580Z,99900.11
2019-03-11T04:15:48.946Z,99910.43
2019-03-11T04:18:20.397Z,99911.35
2019-03-11T04:20:51.850Z,99896.10
2019-03-11T04:23:23.193Z,99916.80
2019-03-11T04:25:54.469Z,99919.92
2019-03-11T04:28:25.797Z,99918.97
2019-03-11T04:30:57.075Z,99917.17
2019-03-11T04:33:28.355Z,99921.42
2019-03-11T04:35:59.689Z,99914.08
2019-03-11T04:38:31.198Z,99927.78
2019-03-11T04:41:02.537Z,99926.48
2019-03-11T04:43:33.877Z,99928.37
2019-03-11T04:46:05.198Z,99934.05
2019-03-11T04:48:36.539Z,99933.20
2019-03-11T04:51:07.841Z,99937.37
2019-03-11T04:53:39.174Z,99937.28
2019-03-11T04:56:10.479Z,99933.90
2019-03-11T04:58:41.739Z,99937.72
2019-03-11T05:01:12.984Z,99931.20
2019-03-11T05:03:46.174Z,99946.48
2019-03-11T05:06:17.264Z,99940.80
2019-03-11T05:08:51.827Z,99946.44
2019-03-11T05:11:23.150Z,99946.06
2019-03-11T05:13:54.456Z,99941.92
2019-03-11T05:16:25.735Z,99937.91
2019-03-11T05:18:56.999Z,99947.72
2019-03-11T05:21:28.299Z,99943.66
2019-03-11T05:23:59.555Z,99940.18
2019-03-11T05:26:30.848Z,99939.36
2019-03-11T05:29:02.173Z,99950.80
2019-03-11T05:31:33.600Z,99954.61
2019-03-11T05:34:05.112Z,99954.61
2019-03-11T05:36:36.469Z,99956.41
2019-03-11T05:39:09.343Z,99946.11
2019-03-11T05:41:40.573Z,99957.66
2019-03-11T05:44:11.852Z,99949.07
2019-03-11T05:46:43.112Z,99949.41
2019-03-11T05:49:14.429Z,99944.20
2019-03-11T05:51:45.742Z,99948.73
2019-03-11T05:54:17.053Z,99961.41
2019-03-11T05:56:48.411Z,99950.66
2019-03-11T05:59:19.682Z,99957.36
2019-03-11T06:01:50.982Z,99956.42
2019-03-11T06:04:22.307Z,99931.30
2019-03-11T06:06:53.621Z,99944.04
2019-03-11T06:09:25.063Z,99949.30
2019-03-11T06:11:56.383Z,99944.48
2019-03-11T06:14:27.700Z,99935.99
2019-03-11T06:16:59.403Z,99955.34
2019-03-11T06:19:30.723Z,99971.25
2019-03-11T06:22:06.859Z,99982.44
2019-03-11T06:24:38.177Z,99987.48
2019-03-11T06:27:09.499Z,99995.52
2019-03-11T06:29:40.818Z,99989.58
2019-03-11T06:32:12.141Z,99993.22
2019-03-11T06:34:43.507Z,100008.05
2019-03-11T06:37:14.798Z,100016.45
2019-03-11T06:39:46.067Z,100031.40
2019-03-11T06:42:17.390Z,100027.66
2019-03-11T06:44:48.720Z,100030.30
2019-03-11T06:47:20.029Z,100026.31
2019-03-11T06:49:51.385Z,100029.47
2019-03-11T06:52:22.730Z,100027.34
2019-03-11T06:54:54.113Z,100025.20
2019-03-11T06:57:25.429Z,100028.52
2019-03-11T06:59:56.852Z,100032.27
2019-03-11T07:02:28.296Z,100031.00
2019-03-11T07:05:02.125Z,100025.38
2019-03-11T07:07:32.662Z,100036.48
2019-03-11T07:10:04.085Z,100027.61
2019-03-11T07:12:35.395Z,100044.56
2019-03-11T07:15:07.083Z,100038.88
2019-03-11T07:17:38.430Z,100035.30
2019-03-11T07:20:11.784Z,100030.73
2019-03-11T07:22:44.621Z,100043.03
2019-03-11T07:25:15.910Z,100028.16
2019-03-11T07:27:47.363Z,100049.80
2019-03-11T07:30:18.783Z,100030.33
2019-03-11T07:32:50.147Z,100052.77
2019-03-11T07:35:21.451Z,100048.47
2019-03-11T07:37:52.783Z,100056.83
2019-03-11T07:40:29.543Z,100053.47
2019-03-11T07:42:57.553Z,100054.77
2019-03-11T07:45:28.895Z,100051.27
2019-03-11T07:48:00.598Z,100049.56
2019-03-11T07:50:31.885Z,100055.67
2019-03-11T07:53:03.175Z,100053.11
2019-03-11T07:55:34.542Z,100070.34
2019-03-11T07:58:05.882Z,100071.45
2019-03-11T08:00:37.123Z,100061.00
2019-03-11T08:03:08.395Z,100081.30
2019-03-11T08:05:39.715Z,100083.12
2019-03-11T08:08:11.050Z,100079.13
2019-03-11T08:10:42.866Z,100082.61
2019-03-11T08:13:14.192Z,100090.84
2019-03-11T08:15:45.522Z,100096.48
2019-03-11T08:18:16.804Z,100099.05
2019-03-11T08:20:48.506Z,100104.92
2019-03-11T08:23:19.813Z,100092.30
2019-03-11T08:25:51.139Z,100106.53
2019-03-11T08:28:22.415Z,100104.56
2019-03-11T08:30:53.921Z,100110.46
2019-03-11T08:33:25.225Z,100107.08
2019-03-11T08:35:56.538Z,100107.36
2019-03-11T08:38:29.043Z,100116.75
2019-03-11T08:41:00.612Z,100111.74
2019-03-11T08:43:31.893Z,100118.14
2019-03-11T08:46:07.550Z,100119.00
2019-03-11T08:48:38.924Z,100126.56
2019-03-11T08:51:10.191Z,100122.58
2019-03-11T08:53:41.516Z,100125.01
2019-03-11T08:56:12.865Z,100120.59
2019-03-11T08:58:44.276Z,100127.88
2019-03-11T09:01:15.572Z,100129.97
2019-03-11T09:03:48.089Z,100129.92
2019-03-11T09:06:19.472Z,100140.90
2019-03-11T09:08:50.782Z,100134.86
2019-03-11T09:11:22.113Z,100143.94
2019-03-11T09:13:54.373Z,100136.94
2019-03-11T09:16:25.642Z,100136.90
2019-03-11T09:18:56.970Z,100142.73
2019-03-11T09:21:28.241Z,100141.24
2019-03-11T09:23:59.630Z,100137.20
2019-03-11T09:26:30.967Z,100149.88
2019-03-11T09:29:02.244Z,100166.06
2019-03-11T09:31:33.536Z,100163.68
2019-03-11T09:34:04.836Z,100155.46
2019-03-11T09:36:36.128Z,100165.76
2019-03-11T09:39:11.613Z,100164.24
2019-03-11T09:41:42.968Z,100170.42
2019-03-11T09:44:14.282Z,100172.23
2019-03-11T09:46:45.607Z,100177.98
2019-03-11T09:49:16.913Z,100190.94
2019-03-11T09:51:48.230Z,100199.78
2019-03-11T09:54:19.550Z,100188.43
2019-03-11T09:56:50.822Z,100188.96
2019-03-11T09:59:22.090Z,100194.61
2019-03-11T10:01:53.625Z,100189.62
2019-03-11T10:04:24.902Z,100190.11
2019-03-11T10:06:56.220Z,100203.84
2019-03-11T10:09:27.556Z,100201.91
2019-03-11T10:11:58.840Z,100202.73
2019-03-11T10:14:30.180Z,100195.83
2019-03-11T10:17:01.539Z,100197.31
2019-03-11T10:19:32.799Z,100195.72
2019-03-11T10:22:04.076Z,100203.45
2019-03-11T10:24:35.424Z,100210.89
2019-03-11T10:27:06.816Z,100210.88
2019-03-11T10:29:38.119Z,100203.65
2019-03-11T10:32:09.479Z,100201.75
2019-03-11T10:34:40.767Z,100213.55
2019-03-11T10:37:12.097Z,100212.34
2019-03-11T10:39:43.411Z,100202.50
2019-03-11T10:42:14.693Z,100207.69
2019-03-11T10:44:45.952Z,100193.42
2019-03-11T10:47:17.295Z,100204.06
2019-03-11T10:49:48.601Z,100209.44
2019-03-11T10:52:19.912Z,100210.69
2019-03-11T10:54:51.182Z,100223.25
2019-03-11T10:57:22.499Z,100228.77
2019-03-11T10:59:53.850Z,100235.34
2019-03-11T11:02:25.161Z,100235.97
2019-03-11T11:04:56.455Z,100248.16
2019-03-11T11:07:27.742Z,100244.10
2019-03-11T11:09:59.080Z,100251.69
2019-03-11T11:12:30.392Z,100252.03
2019-03-11T11:15:01.840Z,100277.20
2019-03-11T11:17:33.162Z,100259.02
2019-03-11T11:20:04.707Z,100255.02
2019-03-11T11:22:36.005Z,100269.09
2019-03-11T11:25:08.571Z,100281.73
2019-03-11T11:27:39.894Z,100298.11
2019-03-11T11:30:15.539Z,100295.19
2019-03-11T11:32:46.847Z,100292.37
2019-03-11T11:35:18.630Z,100291.30
2019-03-11T11:37:49.911Z,100291.39
2019-03-11T11:40:23.366Z,100282.23
2019-03-11T11:42:55.057Z,100287.38
2019-03-11T11:45:26.423Z,100292.08
2019-03-11T11:47:57.740Z,100295.88
2019-03-11T11:50:29.007Z,100292.49
2019-03-11T11:53:00.290Z,100292.59
2019-03-11T11:55:31.620Z,100288.47
2019-03-11T11:58:02.937Z,100286.45
2019-03-11T12:00:34.915Z,100283.19
2019-03-11T12:03:06.415Z,100281.13
2019-03-11T12:05:37.721Z,100280.22
2019-03-11T12:08:09.002Z,100292.02
2019-03-11T12:10:40.286Z,100278.44
2019-03-11T12:13:11.624Z,100292.13
2019-03-11T12:15:42.960Z,100288.69
2019-03-11T12:18:14.229Z,100296.98
2019-03-11T12:20:45.500Z,100314.42
2019-03-11T12:23:17.812Z,100313.98
2019-03-11T12:25:51.163Z,100326.36
2019-03-11T12:28:22.509Z,100365.00
2019-03-11T12:30:55.187Z,100375.63
2019-03-11T12:33:28.259Z,100346.91
2019-03-11T12:35:59.590Z,100347.16
2019-03-11T12:38:30.937Z,100339.99
2019-03-11T12:41:04.671Z,100337.72
2019-03-11T12:43:38.991Z,100339.73
2019-03-11T12:46:14.949Z,100336.23
2019-03-11T12:48:46.303Z,100330.62
2019-03-11T12:51:17.577Z,100330.62
2019-03-11T12:53:48.882Z,100325.55
2019-03-11T12:56:20.157Z,100318.28
2019-03-11T12:58:51.492Z,100326.16
2019-03-11T13:01:22.809Z,100322.05
2019-03-11T13:03:54.160Z,100322.78
2019-03-11T13:06:25.559Z,100349.50
2019-03-11T13:08:56.857Z,100342.37
2019-03-11T13:11:29.468Z,100339.12
2019-03-11T13:14:00.703Z,100338.36
2019-03-11T13:16:32.004Z,100333.64
2019-03-11T13:19:13.186Z,100349.92
2019-03-11T13:21:41.097Z,100351.75
2019-03-11T13:24:12.419Z,100357.52
2019-03-11T13:26:43.749Z,100367.63
2019-03-11T13:29:15.100Z,100329.53
2019-03-11T13:31:46.385Z,100363.97
2019-03-11T13:34:17.666Z,100370.69
2019-03-11T13:36:48.951Z,100385.70
2019-03-11T13:39:20.216Z,100378.48
2019-03-11T13:41:53.067Z,100397.05
2019-03-11T13:44:24.517Z,100399.30
2019-03-11T13:46:55.792Z,100403.44
2019-03-11T13:49:27.352Z,100400.59
2019-03-11T13:51:58.627Z,100403.02
2019-03-11T13:54:29.921Z,100405.67
2019-03-11T13:57:01.225Z,100404.44
2019-03-11T13:59:32.495Z,100419.99
2019-03-11T14:02:03.828Z,100422.09
2019-03-11T14:04:35.202Z,100419.28
2019-03-11T14:07:06.474Z,100409.95
2019-03-11T14:09:37.755Z,100417.55
2019-03-11T14:12:09.163Z,100420.45
2019-03-11T14:14:40.450Z,100422.78
2019-03-11T14:17:11.794Z,100431.72
2019-03-11T14:19:43.056Z,100417.58
2019-03-11T14:22:14.348Z,100410.86
2019-03-11T14:24:49.255Z,100430.86
2019-03-11T14:27:20.570Z,100459.55
2019-03-11T14:29:51.840Z,100453.32
2019-03-11T14:32:23.304Z,100479.83
2019-03-11T14:34:54.639Z,100455.31
2019-03-11T14:37:25.931Z,100459.30
2019-03-11T14:39:57.196Z,100464.29
2019-03-11T14:42:28.550Z,100458.75
2019-03-11T14:44:59.854Z,100450.36
2019-03-11T14:47:31.234Z,100448.78
2019-03-11T14:50:02.589Z,100465.11
2019-03-11T14:52:33.864Z,100445.31
2019-03-11T14:55:05.298Z,100446.84
2019-03-11T14:57:36.563Z,100438.40
2019-03-11T15:00:10.423Z,100440.00
2019-03-11T15:02:42.843Z,100452.66
2019-03-11T15:05:14.185Z,100435.77
2019-03-11T15:07:45.530Z,100423.58
2019-03-11T15:10:17.585Z,100455.69
2019-03-11T15:12:49.116Z,100453.00
2019-03-11T15:15:20.703Z,100441.75
2019-03-11T15:17:52.211Z,100437.80
2019-03-11T15:20:23.568Z,100457.89
2019-03-11T15:23:05.459Z,100444.67
2019-03-11T15:25:27.925Z,100451.07
2019-03-11T15:27:59.278Z,100454.41
2019-03-11T15:30:30.563Z,100453.30
2019-03-11T15:33:01.916Z,100461.60
2019-03-11T15:35:33.218Z,100462.55
2019-03-11T15:38:04.507Z,100459.98
2019-03-11T15:40:35.858Z,100445.81
2019-03-11T15:43:07.527Z,100465.13
2019-03-11T15:45:39.277Z,100460.77
2019-03-11T15:48:10.591Z,100476.50
2019-03-11T15:50:44.284Z,100464.34
2019-03-11T15:53:18.857Z,100469.42
2019-03-11T15:55:50.168Z,100483.02
2019-03-11T15:58:21.479Z,100476.20
2019-03-11T16:00:52.798Z,100486.72
2019-03-11T16:03:24.144Z,100481.92
2019-03-11T16:05:55.458Z,100490.78
2019-03-11T16:08:26.828Z,100503.71
2019-03-11T16:10:58.164Z,100502.63
2019-03-11T16:13:30.841Z,100521.28
2019-03-11T16:16:02.174Z,100513.16
2019-03-11T16:18:36.355Z,100523.34
2019-03-11T16:21:07.672Z,100528.95
2019-03-11T16:23:39.040Z,100535.41
2019-03-11T16:26:13.709Z,100553.09
2019-03-11T16:28:48.257Z,100558.59
2019-03-11T16:31:18.085Z,100593.70
2019-03-11T16:33:49.427Z,100606.20
2019-03-11T16:36:20.789Z,100609.95
2019-03-11T16:38:52.119Z,100615.62
2019-03-11T16:41:23.412Z,100614.48
2019-03-11T16:43:54.738Z,100608.61
2019-03-11T16:46:26.058Z,100582.00
2019-03-11T16:48:57.404Z,100619.75
2019-03-11T16:51:28.743Z,100620.66
2019-03-11T16:54:00.109Z,100631.23
2019-03-11T16:56:31.490Z,100625.05
2019-03-11T16:59:02.816Z,100634.59
2019-03-11T17:01:34.143Z,100652.69
2019-03-11T17:04:05.486Z,100651.66
2019-03-11T17:06:36.852Z,100646.39
2019-03-11T17:09:10.913Z,100664.87
2019-03-11T17:11:49.946Z,100659.13
2019-03-11T17:14:21.323Z,100659.97
2019-03-11T17:16:52.628Z,100658.02
2019-03-11T17:19:23.929Z,100668.24
2019-03-11T17:21:55.216Z,100669.34
2019-03-11T17:24:26.486Z,100685.29
2019-03-11T17:26:57.720Z,100675.71
2019-03-11T17:29:29.051Z,100693.67
2019-03-11T17:32:00.346Z,100678.88
2019-03-11T17:34:31.611Z,100692.33
2019-03-11T17:37:02.948Z,100705.00
2019-03-11T17:39:34.250Z,100714.13
2019-03-11T17:42:05.594Z,100723.71
2019-03-11T17:44:36.914Z,100724.95
2019-03-11T17:47:08.255Z,100744.94
2019-03-11T17:49:39.538Z,100745.41
2019-03-11T17:52:11.232Z,100755.75
2019-03-11T17:54:42.504Z,100721.35
2019-03-11T17:57:13.784Z,100767.97
2019-03-11T17:59:45.081Z,100759.37
2019-03-11T18:02:16.353Z,100770.59
2019-03-11T18:04:47.689Z,100777.91
2019-03-11T18:07:19.011Z,100779.26
2019-03-11T18:09:50.680Z,100795.91
2019-03-11T18:12:21.971Z,100810.61
2019-03-11T18:14:53.250Z,100805.81
2019-03-11T18:17:24.596Z,100805.02
2019-03-11T18:19:55.878Z,100818.11
2019-03-11T18:22:27.166Z,100828.42
2019-03-11T18:24:58.478Z,100819.84
2019-03-11T18:27:30.074Z,100831.97
2019-03-11T18:30:01.469Z,100827.62
2019-03-11T18:32:32.748Z,100825.81
2019-03-11T18:35:04.234Z,100840.18
2019-03-11T18:37:35.504Z,100830.13
2019-03-11T18:40:08.706Z,100859.27
2019-03-11T18:42:39.996Z,100858.73
2019-03-11T18:45:11.643Z,100867.52
2019-03-11T18:47:43.066Z,100867.55
2019-03-11T18:50:14.593Z,100883.19
2019-03-11T18:52:45.910Z,100876.25
2019-03-11T18:55:17.474Z,100881.02
2019-03-11T18:57:48.898Z,100880.11
2019-03-11T19:00:20.474Z,100893.20
2019-03-11T19:02:51.872Z,100891.94
2019-03-11T19:05:23.294Z,100892.37
2019-03-11T19:07:55.387Z,100898.00
2019-03-11T19:10:26.841Z,100912.86
2019-03-11T19:12:58.175Z,100924.59
2019-03-11T19:15:29.496Z,100920.23
2019-03-11T19:18:00.790Z,100912.34
2019-03-11T19:20:32.126Z,100928.88
2019-03-11T19:23:03.413Z,100914.86
2019-03-11T19:25:34.825Z,100928.83
2019-03-11T19:28:06.155Z,100944.94
2019-03-11T19:30:37.555Z,100938.03
2019-03-11T19:33:11.141Z,100946.33
2019-03-11T19:35:41.831Z,100945.86
2019-03-11T19:38:13.227Z,100952.84
2019-03-11T19:40:44.693Z,100951.03
2019-03-11T19:43:16.042Z,100959.31
2019-03-11T19:45:47.398Z,100964.51
2019-03-11T19:48:18.713Z,100969.27
2019-03-11T19:50:50.133Z,100961.37
2019-03-11T19:53:21.960Z,100963.58
2019-03-11T19:55:53.382Z,100975.73
2019-03-11T19:58:24.855Z,100976.64
2019-03-11T20:00:56.245Z,100978.41
2019-03-11T20:03:30.473Z,100979.63
2019-03-11T20:06:00.690Z,100987.56
2019-03-11T20:08:32.042Z,100989.13
2019-03-11T20:11:03.369Z,100990.05
2019-03-11T20:13:36.659Z,100993.94
2019-03-11T20:16:07.686Z,101003.94
2019-03-11T20:18:38.913Z,101008.30
2019-03-11T20:21:10.184Z,101016.56
2019-03-11T20:23:41.574Z,101020.92
2019-03-11T20:26:12.812Z,101025.25
2019-03-11T20:28:44.062Z,101026.03
2019-03-11T20:31:15.402Z,101027.37
2019-03-11T20:33:46.756Z,101031.35
2019-03-11T20:36:21.255Z,101031.23
2019-03-11T20:38:51.120Z,101033.50
2019-03-11T20:41:22.448Z,101031.73
2019-03-11T20:43:53.743Z,101029.11
2019-03-11T20:46:25.061Z,101039.16
2019-03-11T20:48:56.338Z,101044.36
2019-03-11T20:51:28.075Z,101040.87
2019-03-11T20:53:59.565Z,101042.27
2019-03-11T20:56:30.900Z,101047.50
2019-03-11T20:59:02.324Z,101058.36
2019-03-11T21:01:33.712Z,101055.80
2019-03-11T21:04:05.175Z,101054.03
2019-03-11T21:06:36.601Z,101066.18
2019-03-11T21:09:11.044Z,101067.05
2019-03-11T21:11:42.347Z,101064.93
2019-03-11T21:14:13.719Z,101063.61
2019-03-11T21:16:45.024Z,101064.58
2019-03-11T21:19:16.307Z,101063.80
2019-03-11T21:21:47.612Z,101066.85
2019-03-11T21:24:18.960Z,101066.94
2019-03-11T21:26:50.344Z,101068.30
2019-03-11T21:29:21.716Z,101069.67
2019-03-11T21:31:53.063Z,101065.34
2019-03-11T21:34:24.339Z,101074.48
2019-03-11T21:36:55.730Z,101072.31
2019-03-11T21:39:27.114Z,101080.08
2019-03-11T21:41:59.362Z,101082.20
2019-03-11T21:44:30.682Z,101088.80
2019-03-11T21:47:02.019Z,101087.91
2019-03-11T21:49:33.337Z,101095.72
2019-03-11T21:52:04.739Z,101095.31
2019-03-11T21:54:36.011Z,101101.87
2019-03-11T21:57:07.431Z,101091.81
2019-03-11T21:59:38.802Z,101098.29
2019-03-11T22:02:10.090Z,101103.52
2019-03-11T22:04:41.377Z,101100.91
2019-03-11T22:07:12.666Z,101100.49
2019-03-11T22:09:43.909Z,101111.41
2019-03-11T22:12:15.198Z,101108.33
2019-03-11T22:14:46.571Z,101114.87
2019-03-11T22:17:17.865Z,101112.58
2019-03-11T22:19:49.183Z,101109.97
2019-03-11T22:22:20.459Z,101111.28
2019-03-11T22:24:51.743Z,101114.30
2019-03-11T22:27:23.008Z,101116.52
2019-03-11T22:29:54.536Z,101117.41
2019-03-11T22:32:25.829Z,101119.13
2019-03-11T22:34:57.082Z,101128.75
2019-03-11T22:37:28.366Z,101123.12
2019-03-11T22:39:59.740Z,101125.22
2019-03-11T22:42:31.029Z,101124.33
2019-03-11T22:45:02.282Z,101125.97
2019-03-11T22:47:33.573Z,101125.63
2019-03-11T22:50:05.304Z,101121.17
2019-03-11T22:52:36.599Z,101126.07
2019-03-11T22:55:08.628Z,101136.08
2019-03-11T22:57:39.876Z,101130.45
2019-03-11T23:00:23.255Z,101135.67
2019-03-11T23:02:58.055Z,101132.64
2019-03-11T23:05:29.333Z,101124.34
2019-03-11T23:08:00.622Z,101126.59
2019-03-11T23:10:31.885Z,101123.62
2019-03-11T23:13:03.186Z,101119.27
2019-03-11T23:15:34.437Z,101124.06
2019-03-11T23:18:05.750Z,101120.17
2019-03-11T23:20:37.022Z,101120.64
2019-03-11T23:23:08.267Z,101117.19
2019-03-11T23:25:39.592Z,101125.91
2019-03-11T23:28:10.829Z,101123.75
2019-03-11T23:30:42.101Z,101129.47
2019-03-11T23:33:13.390Z,101129.56
2019-03-11T23:35:44.679Z,101129.94
2019-03-11T23:38:15.953Z,101129.17
2019-03-11T23:40:47.204Z,101130.09
2019-03-11T23:43:18.523Z,101131.88
2019-03-11T23:45:49.798Z,101124.92
2019-03-11T23:48:21.082Z,101122.39
2019-03-11T23:50:52.425Z,101114.18
2019-03-11T23:53:23.852Z,101104.60
2019-03-11T23:55:55.184Z,101105.98
2019-03-11T23:58:26.477Z,101105.98
